Airport Name : Sitka Rocky Gutierrez

Other Name : Sitka

ICAO : PASI

IATA : SIT

FAA : PSIT

Latitude : 57.047138

Longitude : -135.361611

Country : United States

Local Date and Time : 20 Jul 2024 23:24

 

TAF (Terminal Aerodrome Forecast)

PASI 210520Z 2106/2206 VRB04KT P6SM -RA FEW003 SCT016 OVC026 FM210800 VRB03KT P6SM SCT003 OVC050 FM211300 24005KT P6SM BKN025 OVC050 FM211700 22005KT P6SM BKN015 OVC025 FM212200 21006KT P6SM OVC050

 

METAR (METeorological Aerodrome Report)

PASI 210703Z 25003KT 10SM FEW003 OVC008 14/13 A3017 RMK AO2 T01440128 $

PASI 210653Z 28003KT 10SM SCT003 OVC010 14/13 A3017 RMK AO2 SLP215 T01440128 $

PASI 210611Z 30004KT 10SM FEW003 BKN012 OVC050 15/13 A3018 RMK AO2 T01500133 $

PASI 210553Z 32004KT 10SM FEW003 SCT010 BKN055 15/13 A3018 RMK AO2 RAE03 SLP218 P0000 60005 T01500128 10161 20144 55003 $

PASI 210508Z 33003KT 10SM FEW003 SCT016 BKN065 15/13 A3017 RMK AO2 RAE03 P0000 T01500128 $

PASI 210453Z 35003KT 10SM -RA FEW003 SCT016 BKN025 15/13 A3017 RMK AO2 SLP217 P0000 T01500128 $

PASI 210353Z 31004KT 10SM -RA FEW003 SCT016 OVC026 15/13 A3017 RMK AO2 SLP217 P0001 T01500128 $